Time;durP1;ratioP1;P1;durP2;ratioP2;P2;SDS_P1;SDS_P2;PMS_P1;PMS_P2;Temp;Humidity;BMP_temperature;BMP_pressure;BME280_temperature;BME280_humidity;BME280_pressure;Samples;Min_cycle;Max_cycle;Signal;HPM_P1;HPM_P2
2022/05/12 00:00:16;;;;;;;11.10;2.60;;;;;;;12.57;78.28;101340.50;4965144;28;20038;-54
2022/05/12 00:02:42;;;;;;;11.50;2.55;;;;;;;12.52;78.09;101338.34;4965041;28;20031;-52
2022/05/12 00:05:07;;;;;;;11.02;2.72;;;;;;;12.49;78.53;101344.03;4964479;28;20049;-53
2022/05/12 00:07:33;;;;;;;11.02;2.53;;;;;;;12.43;78.60;101350.00;4967237;28;20026;-52
2022/05/12 00:09:58;;;;;;;13.95;2.90;;;;;;;12.37;78.54;101346.19;4966598;28;20031;-53
2022/05/12 00:12:24;;;;;;;9.68;2.63;;;;;;;12.36;78.98;101355.19;4964033;28;20027;-50
2022/05/12 00:14:50;;;;;;;9.15;2.53;;;;;;;12.32;78.80;101358.38;4965219;28;20029;-52
2022/05/12 00:17:15;;;;;;;12.20;2.83;;;;;;;12.27;78.70;101355.38;4965373;28;20542;-53
2022/05/12 00:19:40;;;;;;;11.68;2.67;;;;;;;12.20;78.85;101346.41;4965695;28;20174;-51
2022/05/12 00:22:06;;;;;;;10.90;2.55;;;;;;;12.07;78.96;101355.72;4963868;28;20126;-52
2022/05/12 00:24:31;;;;;;;8.70;2.53;;;;;;;11.97;78.77;101360.41;4965190;28;20455;-52
2022/05/12 00:26:56;;;;;;;12.25;2.85;;;;;;;11.87;78.76;101362.41;4965503;28;20035;-52
2022/05/12 00:29:22;;;;;;;8.32;2.42;;;;;;;11.76;78.78;101374.16;4965984;28;20058;-53
2022/05/12 00:31:48;;;;;;;11.00;2.28;;;;;;;11.69;78.79;101377.66;4964449;28;20038;-51
2022/05/12 00:34:15;;;;;;;9.60;2.70;;;;;;;11.62;79.08;101377.50;4965528;28;20032;-52
2022/05/12 00:36:41;;;;;;;11.90;2.95;;;;;;;11.59;79.12;101377.81;4965455;28;20030;-51
2022/05/12 00:39:06;;;;;;;12.25;2.58;;;;;;;11.62;79.54;101385.47;4965588;28;20103;-52
2022/05/12 00:41:32;;;;;;;15.68;3.40;;;;;;;11.63;79.95;101386.31;4965872;28;20041;-53
2022/05/12 00:44:02;;;;;;;6.85;2.50;;;;;;;11.57;79.94;101397.59;4965880;28;20397;-50
2022/05/12 00:46:33;;;;;;;8.60;2.67;;;;;;;11.49;79.42;101404.56;4966072;28;20106;-53
2022/05/12 00:49:10;;;;;;;11.32;2.35;;;;;;;11.43;79.80;101393.72;4965741;28;20037;-53
2022/05/12 00:51:48;;;;;;;9.32;2.33;;;;;;;11.37;79.87;101399.72;4965575;28;20045;-54
2022/05/12 00:54:26;;;;;;;9.45;2.28;;;;;;;11.29;79.59;101395.22;4963070;28;20089;-53
2022/05/12 00:56:52;;;;;;;8.02;2.53;;;;;;;11.22;79.42;101399.47;4964620;28;20030;-52
2022/05/12 00:59:26;;;;;;;8.15;2.33;;;;;;;11.14;79.47;101399.47;4965642;28;20513;-50
2022/05/12 01:01:51;;;;;;;6.20;2.47;;;;;;;11.08;79.70;101398.28;4964576;28;20484;-53
2022/05/12 01:04:19;;;;;;;7.28;2.30;;;;;;;10.98;79.73;101413.50;4964237;28;20035;-53
2022/05/12 01:06:45;;;;;;;5.45;2.35;;;;;;;10.89;79.73;101406.50;4964271;28;20158;-52
2022/05/12 01:09:11;;;;;;;9.60;2.55;;;;;;;10.85;80.37;101394.53;4966477;28;20373;-52
2022/05/12 01:11:37;;;;;;;8.40;2.67;;;;;;;10.81;80.47;101398.50;4966824;28;20038;-52
2022/05/12 01:14:05;;;;;;;8.98;2.58;;;;;;;10.84;80.48;101408.78;4969060;28;20109;-53
2022/05/12 01:16:46;;;;;;;6.25;2.00;;;;;;;10.82;80.60;101413.44;4966644;28;20039;-51
2022/05/12 01:19:18;;;;;;;10.43;2.45;;;;;;;10.77;80.82;101418.41;4967476;28;20022;-51
2022/05/12 01:21:45;;;;;;;5.95;2.00;;;;;;;10.74;80.34;101422.19;4968136;28;20034;-51
2022/05/12 01:24:11;;;;;;;4.72;2.00;;;;;;;10.69;80.25;101421.81;4968831;28;20030;-51
2022/05/12 01:26:37;;;;;;;6.32;2.08;;;;;;;10.70;80.50;101431.47;4971377;28;20042;-52
2022/05/12 01:29:03;;;;;;;5.00;1.80;;;;;;;10.71;80.36;101435.81;4970106;28;20042;-52
2022/05/12 01:31:29;;;;;;;5.88;1.80;;;;;;;10.71;80.59;101437.63;4971284;28;20023;-53
2022/05/12 01:33:54;;;;;;;7.28;1.90;;;;;;;10.72;80.95;101436.63;4971565;28;20014;-51
2022/05/12 01:36:20;;;;;;;7.30;2.00;;;;;;;10.69;80.67;101435.09;4969755;28;20084;-53
2022/05/12 01:38:47;;;;;;;5.65;1.90;;;;;;;10.68;80.99;101428.13;4971383;28;20086;-50
2022/05/12 01:41:12;;;;;;;5.20;2.05;;;;;;;10.63;80.75;101432.25;4970935;28;20041;-51
2022/05/12 01:43:37;;;;;;;5.63;1.90;;;;;;;10.66;80.75;101443.38;4971377;28;20026;-54
2022/05/12 01:46:03;;;;;;;6.35;1.92;;;;;;;10.64;80.82;101448.03;4970214;28;20030;-51
2022/05/12 01:48:28;;;;;;;5.22;1.80;;;;;;;10.64;80.74;101445.38;4971051;28;20092;-52
2022/05/12 01:50:54;;;;;;;6.60;1.70;;;;;;;10.65;80.90;101449.69;4969760;28;20049;-53
2022/05/12 01:53:20;;;;;;;6.32;1.63;;;;;;;10.68;80.70;101452.03;4971419;28;20237;-51
2022/05/12 01:55:48;;;;;;;4.45;1.85;;;;;;;10.71;80.98;101445.59;4971485;28;20538;-50
2022/05/12 01:58:15;;;;;;;4.70;2.00;;;;;;;10.77;81.05;101455.59;4972516;28;20080;-52
2022/05/12 02:00:40;;;;;;;3.90;1.80;;;;;;;10.85;80.85;101451.16;4971979;28;20550;-51
2022/05/12 02:03:05;;;;;;;4.78;1.90;;;;;;;10.92;80.79;101454.00;4967298;28;20027;-54
2022/05/12 02:05:33;;;;;;;6.22;1.80;;;;;;;10.96;80.68;101459.84;4969286;28;20014;-50
2022/05/12 02:07:58;;;;;;;2.30;1.30;;;;;;;10.95;80.49;101466.13;4969300;28;20050;-51
2022/05/12 02:10:31;;;;;;;7.65;2.20;;;;;;;10.97;80.41;101472.13;4969981;28;20476;-53
2022/05/12 02:12:57;;;;;;;6.22;1.95;;;;;;;10.95;80.33;101469.63;4970410;28;20084;-52
2022/05/12 02:15:23;;;;;;;9.98;2.40;;;;;;;11.00;80.57;101471.84;4970532;28;20034;-53
2022/05/12 02:17:49;;;;;;;6.07;2.10;;;;;;;11.00;80.38;101482.47;4969702;28;20097;-50
2022/05/12 02:20:16;;;;;;;4.55;2.00;;;;;;;10.97;80.37;101483.59;4968608;28;20122;-52
2022/05/12 02:22:41;;;;;;;7.07;2.17;;;;;;;10.92;80.13;101474.44;4969953;28;20089;-52
2022/05/12 02:25:07;;;;;;;6.68;2.40;;;;;;;10.97;80.13;101482.75;4970214;28;20015;-50
2022/05/12 02:27:33;;;;;;;5.47;2.10;;;;;;;10.97;80.22;101483.59;4969126;28;20105;-52
2022/05/12 02:29:58;;;;;;;6.65;2.20;;;;;;;11.01;79.95;101486.78;4968619;28;20029;-50
2022/05/12 02:32:23;;;;;;;5.60;2.10;;;;;;;10.96;80.05;101481.09;4969826;28;20395;-50
2022/05/12 02:34:49;;;;;;;5.53;2.05;;;;;;;10.90;79.68;101487.03;4970012;28;20022;-51
2022/05/12 02:37:14;;;;;;;5.97;2.42;;;;;;;10.84;79.43;101492.00;4966177;28;20562;-52
2022/05/12 02:39:41;;;;;;;7.35;1.95;;;;;;;10.77;79.55;101504.25;4968797;28;20031;-53
2022/05/12 02:42:08;;;;;;;6.80;2.70;;;;;;;10.79;79.34;101509.41;4968786;28;20050;-51
2022/05/12 02:44:35;;;;;;;9.60;2.85;;;;;;;10.75;79.70;101510.69;4969538;28;20038;-50
2022/05/12 02:47:01;;;;;;;7.47;2.60;;;;;;;10.71;79.94;101512.00;4968732;28;20030;-51
2022/05/12 02:49:26;;;;;;;8.85;2.83;;;;;;;10.67;80.33;101515.94;4968953;28;20081;-51
2022/05/12 02:51:52;;;;;;;5.65;2.60;;;;;;;10.64;80.69;101517.06;4968922;28;20499;-52
2022/05/12 02:54:18;;;;;;;9.30;2.72;;;;;;;10.60;80.74;101518.38;4968565;28;20089;-53
2022/05/12 02:56:44;;;;;;;7.05;2.83;;;;;;;10.56;80.87;101525.00;4968558;28;20057;-52
2022/05/12 02:59:10;;;;;;;7.60;2.88;;;;;;;10.55;80.92;101520.66;4968373;28;20103;-51
2022/05/12 03:01:36;;;;;;;9.02;2.90;;;;;;;10.49;81.04;101518.63;4969101;28;20547;-53
2022/05/12 03:04:02;;;;;;;6.85;2.78;;;;;;;10.46;81.37;101526.91;4969058;28;20128;-52
2022/05/12 03:06:28;;;;;;;10.30;3.10;;;;;;;10.44;81.79;101528.88;4968762;28;20134;-53
2022/05/12 03:08:54;;;;;;;11.68;3.60;;;;;;;10.42;81.52;101526.38;4966098;28;20039;-53
2022/05/12 03:11:20;;;;;;;13.82;3.10;;;;;;;10.33;81.72;101526.44;4967587;28;20110;-53
2022/05/12 03:13:48;;;;;;;10.85;3.63;;;;;;;10.28;81.33;101528.72;4968764;28;20129;-53
2022/05/12 03:16:14;;;;;;;12.30;3.17;;;;;;;10.21;81.68;101526.69;4969266;28;20546;-53
2022/05/12 03:18:39;;;;;;;12.65;3.45;;;;;;;10.14;81.81;101525.59;4967187;28;20041;-53
2022/05/12 03:21:04;;;;;;;11.82;3.40;;;;;;;10.14;82.18;101536.22;4966534;28;20467;-52
2022/05/12 03:23:30;;;;;;;9.55;3.53;;;;;;;10.14;82.47;101533.56;4968337;28;20093;-52
2022/05/12 03:25:55;;;;;;;12.25;3.65;;;;;;;10.15;82.44;101529.09;4968850;28;20034;-53
2022/05/12 03:28:21;;;;;;;12.80;3.95;;;;;;;10.14;82.84;101522.94;4967725;28;20130;-54
2022/05/12 03:30:47;;;;;;;10.50;3.00;;;;;;;10.07;82.24;101527.16;4967571;28;20023;-54
2022/05/12 03:33:13;;;;;;;9.52;3.15;;;;;;;9.98;82.26;101536.03;4968560;28;20049;-51
2022/05/12 03:35:38;;;;;;;15.52;4.03;;;;;;;10.00;82.48;101534.06;4969809;28;20035;-54
2022/05/12 03:38:04;;;;;;;16.58;4.72;;;;;;;10.01;83.02;101548.16;4967650;28;20400;-53
2022/05/12 03:40:33;;;;;;;19.67;5.10;;;;;;;10.03;83.30;101554.16;4967675;28;20512;-52
2022/05/12 03:42:58;;;;;;;15.55;5.57;;;;;;;10.04;83.42;101556.66;4968888;28;20034;-54
2022/05/12 03:45:28;;;;;;;18.08;5.80;;;;;;;10.09;83.78;101561.50;4968243;28;20622;-54
2022/05/12 03:47:55;;;;;;;20.20;6.35;;;;;;;10.09;83.76;101562.34;4966871;28;20057;-53
2022/05/12 03:50:24;;;;;;;16.73;5.35;;;;;;;10.01;84.13;101574.69;4968595;28;20031;-53
2022/05/12 03:52:52;;;;;;;24.02;7.57;;;;;;;9.99;83.91;101569.53;4968475;28;20391;-54
2022/05/12 03:55:21;;;;;;;21.70;6.80;;;;;;;9.93;84.44;101570.13;4968684;28;20413;-52
2022/05/12 03:57:48;;;;;;;20.85;7.00;;;;;;;9.90;84.81;101570.44;4966754;28;20041;-53
2022/05/12 04:00:18;;;;;;;24.88;7.80;;;;;;;9.88;84.99;101570.59;4968041;28;20045;-53
2022/05/12 04:02:44;;;;;;;21.85;8.35;;;;;;;9.87;85.37;101581.34;4968684;28;20023;-52
2022/05/12 04:05:11;;;;;;;20.73;8.65;;;;;;;9.83;85.68;101586.13;4967673;28;20061;-53
2022/05/12 04:07:42;;;;;;;23.63;9.05;;;;;;;9.87;85.83;101584.00;4967772;28;20501;-53
2022/05/12 04:10:07;;;;;;;24.50;8.98;;;;;;;9.93;86.49;101586.06;4968289;28;20511;-50
2022/05/12 04:12:33;;;;;;;27.85;9.02;;;;;;;9.95;86.35;101589.41;4968718;28;20070;-54
2022/05/12 04:14:59;;;;;;;28.27;10.07;;;;;;;9.99;86.29;101592.59;4967530;28;20054;-53
2022/05/12 04:17:24;;;;;;;26.42;9.20;;;;;;;9.99;86.63;101592.59;4967111;28;20491;-54
2022/05/12 04:19:52;;;;;;;29.77;11.07;;;;;;;9.99;86.68;101598.72;4969513;28;20142;-53
2022/05/12 04:22:17;;;;;;;33.92;11.57;;;;;;;10.03;86.98;101602.75;4968469;28;20038;-52
2022/05/12 04:24:44;;;;;;;29.27;11.20;;;;;;;10.07;87.14;101601.47;4967355;28;20508;-53
2022/05/12 04:27:10;;;;;;;28.48;11.68;;;;;;;10.04;87.32;101601.75;4967447;28;20041;-55
2022/05/12 04:29:37;;;;;;;30.13;12.70;;;;;;;10.01;87.31;101596.75;4968435;28;20019;-54
2022/05/12 04:32:02;;;;;;;30.98;12.70;;;;;;;10.05;87.70;101607.91;4968737;28;20038;-54
2022/05/12 04:37:28;;;;;;;30.55;13.25;;;;;;;10.08;87.75;101619.06;4962546;28;20074;-54
2022/05/12 04:39:53;;;;;;;37.42;14.38;;;;;;;10.13;87.92;101623.94;4968464;28;20496;-53
2022/05/12 04:42:18;;;;;;;33.53;14.55;;;;;;;10.17;88.47;101623.50;4965163;28;20042;-54
2022/05/12 04:44:44;;;;;;;40.05;15.93;;;;;;;10.22;88.48;101626.56;4969413;28;20042;-53
2022/05/12 04:47:09;;;;;;;36.08;16.17;;;;;;;10.31;88.84;101632.78;4970796;28;20431;-55
2022/05/12 04:49:34;;;;;;;35.50;15.60;;;;;;;10.35;89.39;101636.81;4972040;28;20029;-55
2022/05/12 04:52:02;;;;;;;37.72;15.48;;;;;;;10.40;89.30;101631.03;4964680;28;20125;-54
2022/05/12 04:54:28;;;;;;;45.47;15.77;;;;;;;10.43;89.21;101628.13;4971945;28;20597;-54
2022/05/12 04:56:53;;;;;;;37.38;16.27;;;;;;;10.50;89.71;101634.50;4967379;28;20042;-54
2022/05/12 04:59:19;;;;;;;45.10;16.98;;;;;;;10.54;89.69;101638.50;4967280;28;20104;-53
2022/05/12 05:01:44;;;;;;;42.95;17.83;;;;;;;10.58;89.48;101641.69;4965758;28;20038;-54
2022/05/12 05:04:09;;;;;;;41.10;17.15;;;;;;;10.62;89.87;101651.03;4966033;28;20507;-54
2022/05/12 05:06:34;;;;;;;34.35;16.48;;;;;;;10.65;90.02;101648.06;4969028;28;20081;-55
2022/05/12 05:09:00;;;;;;;43.20;18.17;;;;;;;10.70;89.99;101653.78;4970629;28;20058;-55
2022/05/12 05:11:26;;;;;;;45.35;18.30;;;;;;;10.74;90.09;101661.31;4971199;28;20022;-53
2022/05/12 05:13:51;;;;;;;41.45;17.33;;;;;;;10.76;90.13;101669.13;4970705;28;20037;-56
2022/05/12 05:16:17;;;;;;;43.67;18.10;;;;;;;10.80;89.94;101670.47;4971414;28;20034;-54
2022/05/12 05:18:43;;;;;;;41.25;19.10;;;;;;;10.80;89.99;101663.34;4970400;28;20034;-56
2022/05/12 05:21:10;;;;;;;39.63;19.05;;;;;;;10.86;90.00;101676.03;4971118;28;20077;-54
2022/05/12 05:23:35;;;;;;;39.92;19.58;;;;;;;10.89;90.45;101674.03;4969209;28;20030;-56
2022/05/12 05:26:01;;;;;;;47.65;19.33;;;;;;;10.93;90.68;101676.22;4970252;28;20057;-55
2022/05/12 05:28:26;;;;;;;42.85;19.95;;;;;;;10.98;90.82;101673.94;4970413;28;20404;-54
2022/05/12 05:30:52;;;;;;;45.92;20.73;;;;;;;11.03;90.65;101677.00;4971362;28;20091;-57
2022/05/12 05:33:19;;;;;;;40.78;20.98;;;;;;;11.07;90.67;101682.84;4970277;28;20105;-56
2022/05/12 05:35:44;;;;;;;46.40;21.13;;;;;;;11.13;90.93;101695.53;4970759;28;20460;-56
2022/05/12 05:38:10;;;;;;;39.72;21.02;;;;;;;11.17;91.00;101702.19;4970398;28;20125;-56
2022/05/12 05:40:36;;;;;;;45.17;20.85;;;;;;;11.20;90.87;101701.06;4968964;28;20061;-55
2022/05/12 05:43:02;;;;;;;45.80;21.60;;;;;;;11.25;90.68;101710.25;4971432;28;20065;-56
2022/05/12 05:45:28;;;;;;;50.10;21.77;;;;;;;11.27;91.21;101708.25;4970895;28;20034;-53
2022/05/12 05:47:57;;;;;;;53.17;22.92;;;;;;;11.32;90.86;101716.63;4969881;28;20122;-56
2022/05/12 05:50:29;;;;;;;54.55;23.55;;;;;;;11.31;91.05;101708.81;4966570;28;20046;-56
2022/05/12 05:55:41;;;;;;;47.55;23.20;;;;;;;11.46;90.94;101737.34;4969488;28;20570;-53
2022/05/12 05:58:07;;;;;;;52.92;23.50;;;;;;;11.52;91.05;101738.53;4967144;28;20540;-55
2022/05/12 06:00:33;;;;;;;51.60;23.27;;;;;;;11.60;91.08;101741.28;4966862;28;20138;-55
2022/05/12 06:02:59;;;;;;;48.28;23.88;;;;;;;11.62;91.19;101744.63;4966581;28;20038;-54
2022/05/12 06:05:25;;;;;;;45.72;24.13;;;;;;;11.66;91.11;101751.31;4965621;28;20058;-55
2022/05/12 06:07:52;;;;;;;47.95;24.25;;;;;;;11.70;90.92;101752.66;4969524;28;20019;-56
2022/05/12 06:10:17;;;;;;;42.92;22.38;;;;;;;11.74;90.73;101747.84;4959767;28;20031;-56
2022/05/12 06:12:42;;;;;;;47.13;22.95;;;;;;;11.78;90.98;101760.72;4961631;28;20046;-55
2022/05/12 06:15:09;;;;;;;51.42;25.17;;;;;;;11.88;90.67;101765.97;4967855;28;20027;-56
2022/05/12 06:17:36;;;;;;;48.97;23.40;;;;;;;11.94;90.63;101768.00;4961885;28;20042;-56
2022/05/12 06:20:03;;;;;;;42.25;21.70;;;;;;;12.00;90.95;101777.19;4959075;28;20062;-56
2022/05/12 06:22:29;;;;;;;42.90;22.50;;;;;;;12.06;90.22;101780.03;4968232;28;20037;-54
2022/05/12 06:24:54;;;;;;;41.38;20.33;;;;;;;12.14;90.32;101770.41;4970004;28;20035;-56
2022/05/12 06:27:20;;;;;;;44.28;21.30;;;;;;;12.21;89.81;101779.47;4965129;28;20034;-53
2022/05/12 06:29:46;;;;;;;44.50;21.15;;;;;;;12.26;89.66;101779.81;4970061;28;20513;-55
2022/05/12 06:32:11;;;;;;;41.55;21.42;;;;;;;12.32;89.57;101785.34;4966487;28;20490;-55
2022/05/12 06:34:37;;;;;;;40.33;19.92;;;;;;;12.40;88.94;101781.88;4969644;28;20543;-54
2022/05/12 06:37:04;;;;;;;33.30;18.15;;;;;;;12.47;88.76;101777.63;4962820;28;21049;-54
2022/05/12 06:39:29;;;;;;;39.53;18.70;;;;;;;12.53;88.69;101781.47;4968725;28;20388;-54
2022/05/12 06:41:55;;;;;;;34.95;18.52;;;;;;;12.56;87.92;101781.97;4964353;28;20058;-56
2022/05/12 06:44:20;;;;;;;34.28;17.48;;;;;;;12.62;87.34;101783.16;4962043;28;20093;-55
2022/05/12 06:46:45;;;;;;;40.85;19.80;;;;;;;12.74;87.47;101795.22;4968854;28;20078;-55
2022/05/12 06:49:11;;;;;;;31.73;17.27;;;;;;;12.79;87.06;101792.88;4969242;28;20384;-52
2022/05/12 06:51:37;;;;;;;35.42;17.70;;;;;;;12.82;86.38;101797.91;4970054;28;20023;-54
2022/05/12 06:54:02;;;;;;;30.55;16.92;;;;;;;12.89;85.99;101803.41;4969791;28;20307;-55
2022/05/12 06:56:28;;;;;;;29.73;14.07;;;;;;;12.95;84.84;101806.25;4969785;28;20027;-55
2022/05/12 06:58:54;;;;;;;28.83;14.43;;;;;;;13.02;84.22;101803.78;4965914;28;20033;-55
2022/05/12 07:01:20;;;;;;;28.08;15.13;;;;;;;13.09;83.65;101811.97;4966787;28;20105;-54
2022/05/12 07:03:45;;;;;;;26.33;15.93;;;;;;;13.12;82.32;101807.13;4968825;28;20616;-55
2022/05/12 07:06:10;;;;;;;28.00;17.10;;;;;;;13.24;82.42;101813.84;4969197;28;20290;-56
2022/05/12 07:08:41;;;;;;;27.50;16.17;;;;;;;13.34;82.49;101819.06;4967192;28;20037;-53
2022/05/12 07:11:08;;;;;;;25.77;14.48;;;;;;;13.37;81.40;101818.72;4969228;28;20027;-54
2022/05/12 07:13:33;;;;;;;25.13;15.68;;;;;;;13.41;81.02;101816.56;4968959;28;20403;-53
2022/05/12 07:15:59;;;;;;;28.85;15.15;;;;;;;13.49;80.71;101814.72;4969196;28;20034;-56
2022/05/12 07:18:24;;;;;;;31.42;15.73;;;;;;;13.57;80.49;101824.56;4967322;28;20022;-55
2022/05/12 07:26:35;;;;;;;17.30;9.35;;;;;;;13.59;77.75;101830.59;4968719;28;20048;-55
2022/05/12 07:29:05;;;;;;;16.42;8.43;;;;;;;13.56;77.91;101841.56;4967103;28;20109;-55
2022/05/12 07:31:31;;;;;;;15.85;8.10;;;;;;;13.52;76.93;101840.25;4967950;28;20070;-56
2022/05/12 07:33:57;;;;;;;17.35;9.23;;;;;;;13.52;77.00;101834.91;4967840;28;20550;-55
2022/05/12 07:36:29;;;;;;;17.33;8.68;;;;;;;13.53;76.65;101839.25;4966540;28;20483;-56
2022/05/12 07:38:56;;;;;;;13.00;7.40;;;;;;;13.53;76.04;101837.41;4966196;28;20041;-56
2022/05/12 07:41:22;;;;;;;18.10;8.38;;;;;;;13.60;75.31;101841.09;4966754;28;20550;-54
2022/05/12 07:43:48;;;;;;;16.52;8.18;;;;;;;13.66;74.74;101846.78;4968685;28;20027;-56
2022/05/12 07:46:17;;;;;;;16.35;8.43;;;;;;;13.79;74.60;101847.09;4968815;28;20407;-55
2022/05/12 07:48:42;;;;;;;16.52;8.38;;;;;;;13.87;74.10;101852.44;4967093;28;20319;-54
2022/05/12 07:51:08;;;;;;;19.50;9.02;;;;;;;14.01;73.99;101853.59;4966944;28;20215;-56
2022/05/12 07:53:35;;;;;;;15.20;7.15;;;;;;;14.07;72.29;101855.59;4967574;28;20038;-56
2022/05/12 07:56:00;;;;;;;15.23;8.15;;;;;;;14.14;72.20;101860.09;4967222;28;20039;-54
2022/05/12 07:58:26;;;;;;;14.00;8.15;;;;;;;14.21;71.59;101855.75;4967532;28;20030;-54
2022/05/12 08:00:53;;;;;;;16.65;7.72;;;;;;;14.36;71.67;101857.72;4967231;28;20168;-55
2022/05/12 08:03:19;;;;;;;11.35;5.30;;;;;;;14.47;70.27;101865.44;4967366;28;20029;-53
2022/05/12 08:05:44;;;;;;;13.57;6.10;;;;;;;14.43;69.82;101864.91;4967579;28;20027;-56
2022/05/12 08:08:11;;;;;;;12.30;6.32;;;;;;;14.39;70.03;101852.03;4966961;28;20321;-55
2022/05/12 08:10:36;;;;;;;14.55;6.22;;;;;;;14.48;70.01;101861.75;4968500;28;20094;-54
2022/05/12 08:13:02;;;;;;;14.63;6.63;;;;;;;14.46;68.79;101872.63;4967512;28;20117;-53
2022/05/12 08:15:27;;;;;;;13.10;5.55;;;;;;;14.51;68.13;101875.59;4965624;28;20135;-54
2022/05/12 08:17:54;;;;;;;13.98;5.65;;;;;;;14.56;67.26;101867.06;4968453;28;20035;-54
2022/05/12 08:20:19;;;;;;;11.75;4.50;;;;;;;14.66;65.96;101873.03;4972262;28;20512;-55
2022/05/12 08:22:45;;;;;;;9.48;3.85;;;;;;;14.81;64.82;101878.53;4970099;28;20061;-54
2022/05/12 08:25:11;;;;;;;10.63;4.72;;;;;;;14.97;64.46;101878.44;4971613;28;20031;-57
2022/05/12 08:27:36;;;;;;;11.00;4.75;;;;;;;15.15;64.32;101875.53;4969459;28;20103;-55
2022/05/12 08:30:05;;;;;;;9.77;3.78;;;;;;;15.34;63.43;101875.09;4972146;28;20026;-54
2022/05/12 08:32:30;;;;;;;7.50;3.22;;;;;;;15.39;61.59;101875.38;4972283;28;20102;-53
2022/05/12 08:34:55;;;;;;;7.40;3.17;;;;;;;15.41;60.37;101877.88;4970603;28;20106;-53
2022/05/12 08:37:21;;;;;;;7.13;2.90;;;;;;;15.40;59.98;101873.53;4970124;28;20038;-53
2022/05/12 08:39:46;;;;;;;6.25;3.13;;;;;;;15.44;59.89;101872.19;4970426;28;20065;-56
2022/05/12 08:42:25;;;;;;;9.52;2.97;;;;;;;15.52;58.58;101865.94;4971966;28;20420;-53
2022/05/12 08:44:51;;;;;;;;;;;;;;;15.67;57.72;101881.09;4970694;28;20035;-55
2022/05/12 08:47:24;;;;;;;7.32;2.75;;;;;;;15.72;56.62;101870.69;4970604;28;20284;-56
2022/05/12 08:49:51;;;;;;;6.18;2.25;;;;;;;15.86;56.01;101873.56;4967819;28;20030;-54
2022/05/12 08:52:20;;;;;;;5.63;2.60;;;;;;;15.94;56.23;101877.03;4971794;28;20484;-56
2022/05/12 08:55:14;;;;;;;6.30;2.40;;;;;;;16.03;55.03;101878.63;4971835;28;20026;-56
2022/05/12 08:58:03;;;;;;;8.82;2.67;;;;;;;16.05;54.95;101875.75;4970812;28;20031;-56
2022/05/12 09:00:39;;;;;;;5.43;2.42;;;;;;;16.13;54.89;101878.34;4969812;28;20485;-54
2022/05/12 09:03:26;;;;;;;6.53;2.30;;;;;;;16.14;54.65;101865.78;4971153;28;20026;-53
2022/05/12 09:06:18;;;;;;;7.15;2.20;;;;;;;16.36;53.64;101881.00;4971024;28;20030;-56
2022/05/12 09:09:02;;;;;;;5.97;2.20;;;;;;;16.57;53.17;101888.31;4967060;28;20054;-56
2022/05/12 09:12:02;;;;;;;9.52;2.53;;;;;;;16.80;53.27;101896.31;4971264;28;20678;-54
2022/05/12 09:14:42;;;;;;;6.70;2.00;;;;;;;16.92;52.47;101895.66;4968163;28;20030;-56
2022/05/12 09:17:16;;;;;;;5.05;1.90;;;;;;;16.99;52.10;101893.88;4969426;28;20030;-54
2022/05/12 09:19:41;;;;;;;6.53;2.22;;;;;;;17.07;51.89;101900.19;4970984;28;20241;-54
2022/05/12 09:22:06;;;;;;;5.88;2.20;;;;;;;17.13;51.39;101891.38;4971681;28;20423;-55
2022/05/12 09:24:32;;;;;;;5.20;2.08;;;;;;;17.13;51.09;101888.69;4969986;28;20030;-55
2022/05/12 09:27:13;;;;;;;7.75;2.47;;;;;;;17.02;50.58;101890.81;4969671;28;20373;-53
2022/05/12 09:29:47;;;;;;;5.15;2.00;;;;;;;16.85;49.64;101889.38;4970563;28;20476;-55
2022/05/12 09:32:12;;;;;;;4.68;1.98;;;;;;;16.87;50.52;101890.00;4971408;28;20038;-54
2022/05/12 09:34:41;;;;;;;4.35;2.17;;;;;;;16.95;50.19;101889.06;4971197;28;20018;-54
2022/05/12 09:37:15;;;;;;;5.97;2.05;;;;;;;17.11;50.02;101891.56;4969371;28;20408;-56
2022/05/12 09:40:00;;;;;;;6.32;2.17;;;;;;;17.20;49.33;101890.44;4966070;28;20435;-56
2022/05/12 09:42:28;;;;;;;3.33;1.95;;;;;;;17.24;48.96;101891.72;4969642;28;20027;-53
2022/05/12 09:44:56;;;;;;;5.77;1.80;;;;;;;17.33;48.86;101881.69;4967052;28;20043;-55
2022/05/12 09:47:21;;;;;;;7.95;2.00;;;;;;;17.20;48.06;101889.59;4963725;28;20298;-54
2022/05/12 09:49:46;;;;;;;5.63;1.80;;;;;;;16.98;47.92;101892.22;4956410;28;20083;-56
2022/05/12 09:52:31;;;;;;;5.97;2.10;;;;;;;17.03;48.39;101884.44;4959680;28;20031;-55
2022/05/12 09:55:27;;;;;;;6.20;2.05;;;;;;;17.20;47.35;101876.16;4963587;28;20078;-54
2022/05/12 09:57:59;;;;;;;5.88;2.00;;;;;;;17.36;46.95;101875.13;4965247;28;20684;-51
2022/05/12 10:00:38;;;;;;;4.05;1.70;;;;;;;17.59;46.76;101876.59;4967298;28;20108;-52
2022/05/12 10:09:17;;;;;;;5.00;1.90;;;;;;;18.08;45.63;101883.06;4967502;28;20045;-54
2022/05/12 10:11:54;;;;;;;5.32;1.70;;;;;;;18.09;44.59;101877.50;4969445;28;20483;-51
2022/05/12 10:14:44;;;;;;;4.80;1.92;;;;;;;18.06;44.53;101875.19;4970490;28;20113;-54
2022/05/12 10:17:40;;;;;;;4.97;1.92;;;;;;;18.11;44.46;101872.75;4968189;28;20038;-53
2022/05/12 10:20:11;;;;;;;5.32;1.90;;;;;;;18.22;44.61;101871.41;4969930;28;20031;-53
2022/05/12 10:22:44;;;;;;;7.00;2.10;;;;;;;18.09;44.35;101876.66;4970016;28;20074;-54
2022/05/12 10:25:58;;;;;;;3.45;1.70;;;;;;;17.88;44.71;101878.34;4969858;28;20061;-51
2022/05/12 10:28:32;;;;;;;4.20;1.73;;;;;;;18.03;44.77;101875.59;4967709;28;20045;-51
2022/05/12 10:31:09;;;;;;;3.28;1.75;;;;;;;18.13;45.15;101884.13;4969566;28;20114;-54
2022/05/12 10:34:00;;;;;;;5.00;1.90;;;;;;;18.11;45.03;101886.19;4967882;28;20097;-54
2022/05/12 10:36:44;;;;;;;6.70;1.88;;;;;;;18.22;44.54;101887.53;4969181;28;20073;-54
2022/05/12 10:39:20;;;;;;;5.40;2.05;;;;;;;18.29;43.82;101879.50;4967108;28;20036;-54
2022/05/12 10:42:12;;;;;;;5.38;1.83;;;;;;;18.37;42.76;101882.03;4967460;28;20026;-55
2022/05/12 10:44:55;;;;;;;3.38;1.42;;;;;;;18.54;42.93;101883.41;4965072;28;20035;-54
2022/05/12 10:47:51;;;;;;;5.38;1.85;;;;;;;18.70;42.45;101871.50;4967183;28;20023;-54
2022/05/12 10:50:27;;;;;;;5.65;1.75;;;;;;;18.71;41.31;101876.69;4966026;28;20074;-54
2022/05/12 10:53:30;;;;;;;6.20;1.80;;;;;;;18.85;41.86;101870.38;4968433;28;20069;-54
2022/05/12 10:56:13;;;;;;;5.22;1.70;;;;;;;19.01;42.70;101865.66;4965596;28;20511;-54
2022/05/12 10:58:53;;;;;;;7.53;1.50;;;;;;;19.08;42.79;101869.19;4968541;28;20019;-53
2022/05/12 11:01:22;;;;;;;7.03;1.80;;;;;;;18.99;41.98;101881.19;4965705;28;20026;-54
2022/05/12 11:03:57;;;;;;;5.18;1.70;;;;;;;18.96;42.16;101873.50;4964858;28;20439;-54
2022/05/12 11:06:29;;;;;;;5.22;1.98;;;;;;;18.86;41.74;101877.41;4964736;28;20030;-54
2022/05/12 11:09:01;;;;;;;5.28;1.70;;;;;;;18.64;41.07;101878.53;4964911;28;20031;-54
2022/05/12 11:11:31;;;;;;;3.97;1.50;;;;;;;18.43;41.00;101865.13;4974006;28;20463;-54
2022/05/12 11:14:15;;;;;;;6.20;1.70;;;;;;;18.41;41.33;101865.31;4966090;28;20041;-54
2022/05/12 11:16:49;;;;;;;8.43;1.90;;;;;;;18.35;40.83;101867.97;4966643;28;20511;-54
2022/05/12 11:19:21;;;;;;;4.88;1.98;;;;;;;18.42;40.15;101858.06;4963962;28;20091;-54
2022/05/12 11:22:08;;;;;;;4.10;1.40;;;;;;;18.62;39.75;101852.81;4963859;28;20034;-54
2022/05/12 11:24:33;;;;;;;3.00;1.75;;;;;;;18.67;40.34;101856.59;4965034;28;20035;-55
2022/05/12 11:27:22;;;;;;;5.30;1.35;;;;;;;18.70;40.52;101858.06;4966664;28;20088;-56
2022/05/12 11:30:22;;;;;;;4.50;1.27;;;;;;;18.49;40.44;101859.78;4961452;28;20046;-55
2022/05/12 11:33:22;;;;;;;8.98;1.73;;;;;;;18.44;40.67;101864.09;4963790;28;20023;-56
2022/05/12 11:35:50;;;;;;;5.10;1.85;;;;;;;18.48;39.89;101862.66;4958488;28;20031;-56
2022/05/12 11:38:42;;;;;;;7.65;1.83;;;;;;;18.44;40.00;101859.53;4960649;28;20037;-56
2022/05/12 11:41:35;;;;;;;3.90;1.67;;;;;;;18.33;39.55;101851.19;4963617;28;20105;-56
2022/05/12 11:44:29;;;;;;;8.50;1.65;;;;;;;18.51;39.63;101848.84;4968558;28;20027;-56
2022/05/12 11:47:19;;;;;;;3.53;1.80;;;;;;;18.83;39.60;101856.28;4965013;28;20511;-55